Station Historical Data
Daily Summary for October 17, 2017 Units:  Metric    English   Both
« Previous Day
Next Day »
Daily Weekly Monthly Yearly Custom
  High: Low: Average:
Temperature: 16.8 °C 0.8 °C 9.7 °C
Dew Point: 9.6 °C -1 °C 4.2 °C
Humidity: 89% 54% 70%
Wind Speed: 30.6km/h 0km/h 6.9km/h
Wind Gust: 45.1km/h - -
Wind- - SW
Pressure: 1026 hPa 1019.9 hPa -
Precipitation: 0 mm    
Historical Graphs
 
 
Tabular Data for October 17, 2017
Time Temperature Dew Point Pressure Wind Wind Speed Wind Gust Humidity Rainfall Rate (Hourly)
00:04 2.5 °C 0.4 °C 1025.6 hPa Calm     86% 0 mm
00:09 2.4 °C 0.3 °C 1025.6 hPa Calm     86% 0 mm
00:14 2.4 °C 0.3 °C 1025.6 hPa Calm     86% 0 mm
00:19 2.3 °C 0.2 °C 1025.3 hPa Calm     86% 0 mm
00:24 2.3 °C 0.2 °C 1025.3 hPa Calm     86% 0 mm
00:29 2.2 °C 0.1 °C 1025.3 hPa Calm     86% 0 mm
00:34 2.1 °C 0.2 °C 1025.3 hPa Calm     87% 0 mm
00:39 2.1 °C 0.1 °C 1025.3 hPa Calm     87% 0 mm
00:44 2.1 °C 0.1 °C 1025.3 hPa Calm     87% 0 mm
00:49 1.9 °C 0 °C 1025.3 hPa Calm     87% 0 mm
00:54 1.9 °C 0 °C 1025.3 hPa Calm     87% 0 mm
00:59 1.9 °C -0.1 °C 1025.3 hPa Calm     87% 0 mm
01:04 1.8 °C -0.1 °C 1025.3 hPa Calm     87% 0 mm
01:09 1.8 °C -0.2 °C 1025.3 hPa Calm     87% 0 mm
01:14 1.7 °C -0.2 °C 1025.3 hPa Calm     87% 0 mm
01:19 1.6 °C -0.4 °C 1025.6 hPa Calm     87% 0 mm
01:24 1.5 °C -0.4 °C 1025.6 hPa Calm     87% 0 mm
01:29 1.5 °C -0.3 °C 1025.6 hPa Calm     88% 0 mm
01:34 1.5 °C -0.3 °C 1025.3 hPa Calm     88% 0 mm
01:39 1.4 °C -0.3 °C 1025.3 hPa Calm     88% 0 mm
01:44 1.4 °C -0.3 °C 1025.6 hPa Calm     88% 0 mm
01:49 1.4 °C -0.3 °C 1025.6 hPa Calm     88% 0 mm
01:54 1.4 °C -0.4 °C 1025.6 hPa Calm     88% 0 mm
01:59 1.4 °C -0.3 °C 1025.6 hPa Calm     88% 0 mm
02:04 1.3 °C -0.4 °C 1025.6 hPa Calm     88% 0 mm
02:09 1.2 °C -0.6 °C 1025.6 hPa Calm     88% 0 mm
02:14 1.1 °C -0.7 °C 1025.6 hPa Calm     88% 0 mm
02:19 1.1 °C -0.7 °C 1025.6 hPa Calm     88% 0 mm
02:24 0.9 °C -0.8 °C 1025.6 hPa Calm     88% 0 mm
02:29 0.8 °C -1 °C 1025.6 hPa Calm     88% 0 mm
02:34 0.8 °C -0.9 °C 1025.6 hPa Calm     88% 0 mm
02:39 0.9 °C -0.7 °C 1025.6 hPa Calm     89% 0 mm
02:44 1 °C -0.6 °C 1025.6 hPa Calm     89% 0 mm
02:49 1.1 °C -0.6 °C 1026 hPa Calm     89% 0 mm
02:54 1 °C -0.6 °C 1026 hPa Calm     89% 0 mm
02:59 1 °C -0.6 °C 1026 hPa Calm     89% 0 mm
03:04 1.1 °C -0.6 °C 1026 hPa Calm     89% 0 mm
03:09 1.1 °C -0.6 °C 1026 hPa Calm     89% 0 mm
03:14 1.1 °C -0.6 °C 1026 hPa Calm     89% 0 mm
03:19 1 °C -0.6 °C 1026 hPa Calm     89% 0 mm
03:24 1.1 °C -0.6 °C 1026 hPa Calm     89% 0 mm
03:29 1.1 °C -0.6 °C 1025.6 hPa Calm     89% 0 mm
03:34 1.1 °C -0.6 °C 1025.6 hPa Calm     89% 0 mm
03:39 1.1 °C -0.6 °C 1025.6 hPa Calm     89% 0 mm
03:44 1.1 °C -0.6 °C 1025.6 hPa Calm     89% 0 mm
03:49 1.1 °C -0.6 °C 1025.6 hPa Calm     89% 0 mm
03:54 1 °C -0.6 °C 1025.6 hPa Calm     89% 0 mm
03:59 1.1 °C -0.6 °C 1025.6 hPa Calm     89% 0 mm
04:04 1.1 °C -0.6 °C 1025.6 hPa Calm     89% 0 mm
04:09 1.1 °C -0.7 °C 1025.3 hPa Calm     88% 0 mm
04:14 1.1 °C -0.7 °C 1025.6 hPa Calm     88% 0 mm
04:19 1 °C -0.8 °C 1025.6 hPa Calm     88% 0 mm
04:24 1 °C -0.8 °C 1025.6 hPa Calm     88% 0 mm
04:29 1 °C -0.8 °C 1025.6 hPa Calm     88% 0 mm
04:34 1 °C -0.8 °C 1025.6 hPa Calm     88% 0 mm
04:39 1 °C -0.8 °C 1025.6 hPa Calm     88% 0 mm
04:44 1.1 °C -0.7 °C 1025.6 hPa Calm     88% 0 mm
04:49 1.1 °C -0.7 °C 1025.6 hPa Calm     88% 0 mm
04:54 1.1 °C -0.7 °C 1025.6 hPa Calm     88% 0 mm
04:59 1.1 °C -0.7 °C 1025.6 hPa Calm     88% 0 mm
05:04 1 °C -0.8 °C 1025.6 hPa Calm     88% 0 mm
05:09 1 °C -0.8 °C 1025.6 hPa Calm     88% 0 mm
05:14 1 °C -0.8 °C 1025.6 hPa Calm     88% 0 mm
05:19 1.1 °C -0.7 °C 1025.6 hPa Calm     88% 0 mm
05:24 1.1 °C -0.7 °C 1025.6 hPa Calm     88% 0 mm
05:29 1.1 °C -0.7 °C 1025.6 hPa Calm     88% 0 mm
05:34 1.2 °C -0.6 °C 1025.6 hPa Calm     88% 0 mm
05:39 1.3 °C -0.5 °C 1025.6 hPa Calm     88% 0 mm
05:44 1.3 °C -0.4 °C 1025.6 hPa Calm     88% 0 mm
05:49 1.3 °C -0.4 °C 1025.6 hPa Calm     88% 0 mm
05:54 1.4 °C -0.4 °C 1025.6 hPa Calm     88% 0 mm
05:59 1.4 °C -0.4 °C 1025.6 hPa Calm     88% 0 mm
06:04 1.3 °C -0.4 °C 1025.6 hPa Calm     88% 0 mm
06:09 1.4 °C -0.3 °C 1025.6 hPa Calm     88% 0 mm
06:14 1.4 °C -0.5 °C 1025.6 hPa Calm     87% 0 mm
06:19 1.6 °C -0.2 °C 1025.6 hPa Calm     88% 0 mm
06:24 1.6 °C -0.4 °C 1025.6 hPa Calm     87% 0 mm
06:29 1.6 °C -0.3 °C 1025.6 hPa Calm     87% 0 mm
06:34 1.7 °C -0.2 °C 1025.6 hPa Calm     87% 0 mm
06:39 1.8 °C -0.1 °C 1025.6 hPa Calm     87% 0 mm
06:44 1.8 °C -0.3 °C 1025.6 hPa Calm     86% 0 mm
06:49 1.9 °C -0.2 °C 1025.6 hPa Calm     86% 0 mm
06:54 1.9 °C -0.2 °C 1025.6 hPa Calm     86% 0 mm
06:59 2 °C -0.1 °C 1025.6 hPa Calm     86% 0 mm
07:04 2.1 °C 0 °C 1025.6 hPa Calm     86% 0 mm
07:09 2.2 °C 0.1 °C 1025.6 hPa Calm     86% 0 mm
07:14 2.2 °C -0.1 °C 1025.6 hPa Calm     85% 0 mm
07:19 2.2 °C -0.1 °C 1025.6 hPa Calm     85% 0 mm
07:24 2.2 °C -0.1 °C 1025.6 hPa Calm     85% 0 mm
07:29 2.3 °C 0.1 °C 1025.3 hPa Calm     85% 0 mm
07:34 2.5 °C 0.2 °C 1025.3 hPa Calm   3.2 km/h 85% 0 mm
07:39 2.7 °C 0.3 °C 1025.3 hPa Calm   3.2 km/h 84% 0 mm
07:44 3.1 °C 0.6 °C 1025.3 hPa South 3.2 km/h 6.4 km/h 84% 0 mm
07:49 3.3 °C 0.7 °C 1025.3 hPa Calm   3.2 km/h 83% 0 mm
07:54 3.5 °C 0.7 °C 1025.3 hPa South 1.6 km/h 6.4 km/h 82% 0 mm
07:59 3.6 °C 0.7 °C 1025.3 hPa South 1.6 km/h 6.4 km/h 81% 0 mm
08:04 3.7 °C 0.7 °C 1025.3 hPa Calm   3.2 km/h 81% 0 mm
08:09 3.9 °C 0.9 °C 1025.3 hPa SSW 3.2 km/h 8 km/h 81% 0 mm
08:14 4.3 °C 1.1 °C 1025.3 hPa Calm   9.7 km/h 80% 0 mm
08:19 4.6 °C 1.3 °C 1025.6 hPa South 3.2 km/h 8 km/h 79% 0 mm
08:24 4.9 °C 1.4 °C 1025.6 hPa South 1.6 km/h 8 km/h 78% 0 mm
08:29 5.2 °C 1.5 °C 1025.6 hPa South 1.6 km/h 8 km/h 77% 0 mm
08:34 5.7 °C 1.8 °C 1025.6 hPa SSW 1.6 km/h 8 km/h 76% 0.25 mm
08:39 6.1 °C 2.2 °C 1025.6 hPa SSW 3.2 km/h 8 km/h 76% 0.25 mm
08:44 6.1 °C 2 °C 1025.3 hPa South 3.2 km/h 8 km/h 75% 0.25 mm
08:49 6.2 °C 2.1 °C 1025.6 hPa South 3.2 km/h 8 km/h 75% 0.25 mm
08:54 6.5 °C 2.4 °C 1025.3 hPa SSW 3.2 km/h 8 km/h 75% 0.25 mm
08:59 6.9 °C 2.8 °C 1025.6 hPa SW 8 km/h 8 km/h 75% 0.25 mm
09:04 7.3 °C 2.8 °C 1025.6 hPa SSW 3.2 km/h 11.3 km/h 73% 0.25 mm
09:09 7.4 °C 2.5 °C 1025.3 hPa SSW 4.8 km/h 12.9 km/h 71% 0.25 mm
09:14 7.6 °C 2.6 °C 1025.3 hPa SW 3.2 km/h 11.3 km/h 71% 0.25 mm
09:19 7.8 °C 2.8 °C 1025.3 hPa SW 3.2 km/h 11.3 km/h 71% 0.25 mm
09:24 8 °C 2.8 °C 1025.3 hPa SSW 3.2 km/h 11.3 km/h 70% 0.25 mm
09:29 8.3 °C 3 °C 1025.3 hPa SSW 8 km/h 16.1 km/h 69% 0.25 mm
09:34 8.5 °C 3.1 °C 1025.3 hPa SSW 6.4 km/h 16.1 km/h 69% 0 mm
09:39 9.2 °C 3.8 °C 1024.9 hPa SSW 4.8 km/h 9.7 km/h 69% 0 mm
09:44 9.9 °C 4.1 °C 1024.9 hPa SSW 3.2 km/h 12.9 km/h 67% 0 mm
09:49 10.4 °C 4.3 °C 1024.9 hPa SW 6.4 km/h 14.5 km/h 66% 0 mm
09:54 10.7 °C 4.4 °C 1024.9 hPa SW 6.4 km/h 17.7 km/h 65% 0 mm
09:59 11 °C 4.2 °C 1024.9 hPa SSW 9.7 km/h 22.5 km/h 63% 0 mm
10:04 11.1 °C 4.3 °C 1024.9 hPa SW 8 km/h 22.5 km/h 63% 0 mm
10:09 11.1 °C 4.5 °C 1024.9 hPa SW 8 km/h 30.6 km/h 64% 0 mm
10:14 11.2 °C 4.4 °C 1024.9 hPa SW 9.7 km/h 30.6 km/h 63% 0 mm
10:19 11.1 °C 4.3 °C 1024.6 hPa SW 8 km/h 20.9 km/h 63% 0 mm
10:24 11.2 °C 4.4 °C 1024.6 hPa West 4.8 km/h 17.7 km/h 63% 0 mm
10:29 11.6 °C 4.3 °C 1024.6 hPa SW 8 km/h 17.7 km/h 61% 0 mm
10:34 11.4 °C 4.4 °C 1024.6 hPa SW 9.7 km/h 17.7 km/h 62% 0 mm
10:39 11.9 °C 4.8 °C 1024.6 hPa SW 6.4 km/h 19.3 km/h 62% 0 mm
10:44 12.2 °C 4.7 °C 1024.6 hPa SW 9.7 km/h 22.5 km/h 60% 0 mm
10:49 12.4 °C 5.1 °C 1024.6 hPa WSW 8 km/h 24.1 km/h 61% 0 mm
10:54 12.4 °C 5.1 °C 1024.6 hPa SSW 4.8 km/h 17.7 km/h 61% 0 mm
10:59 12.9 °C 5.3 °C 1024.6 hPa SW 4.8 km/h 20.9 km/h 60% 0 mm
11:04 13.4 °C 6.3 °C 1024.6 hPa SW 8 km/h 20.9 km/h 62% 0 mm
11:09 13.5 °C 5.6 °C 1024.6 hPa SW 8 km/h 17.7 km/h 59% 0 mm
11:14 13.1 °C 5.3 °C 1024.6 hPa SSW 8 km/h 17.7 km/h 59% 0 mm
11:19 12.8 °C 5.5 °C 1024.3 hPa SW 8 km/h 19.3 km/h 61% 0 mm
11:24 12.8 °C 4.9 °C 1024.3 hPa SSW 9.7 km/h 24.1 km/h 59% 0 mm
11:29 12.7 °C 4.9 °C 1024.3 hPa SSW 14.5 km/h 24.1 km/h 59% 0 mm
11:34 12.9 °C 5.1 °C 1024.3 hPa SW 11.3 km/h 24.1 km/h 59% 0 mm
11:39 13.5 °C 5.4 °C 1024.3 hPa SSW 6.4 km/h 24.1 km/h 58% 0 mm
11:44 13.6 °C 5.5 °C 1024.3 hPa SSW 11.3 km/h 29 km/h 58% 0 mm
11:49 14 °C 5.8 °C 1023.9 hPa SSW 3.2 km/h 25.7 km/h 58% 0 mm
11:54 14.4 °C 6 °C 1023.9 hPa SW 12.9 km/h 16.1 km/h 57% 0 mm
11:59 14.5 °C 6.1 °C 1023.9 hPa SSW 11.3 km/h 22.5 km/h 57% 0 mm
12:04 14.6 °C 6.1 °C 1023.9 hPa SW 11.3 km/h 22.5 km/h 57% 0 mm
12:09 14.9 °C 6.5 °C 1023.9 hPa SW 11.3 km/h 29 km/h 57% 0 mm
12:14 15.2 °C 6.5 °C 1023.9 hPa SW 11.3 km/h 29 km/h 56% 0 mm
12:19 15.1 °C 6.1 °C 1023.9 hPa SW 12.9 km/h 30.6 km/h 55% 0 mm
12:24 15.3 °C 6.3 °C 1023.6 hPa WSW 16.1 km/h 35.4 km/h 55% 0 mm
12:29 15.4 °C 6.7 °C 1023.6 hPa SW 16.1 km/h 35.4 km/h 56% 0 mm
12:34 15.7 °C 6.9 °C 1023.6 hPa SW 14.5 km/h 35.4 km/h 56% 0 mm
12:39 15.9 °C 6.8 °C 1023.2 hPa West 11.3 km/h 27.4 km/h 55% 0 mm
12:44 16.1 °C 6.8 °C 1023.2 hPa SW 22.5 km/h 29 km/h 54% 0 mm
12:49 15.7 °C 7.2 °C 1023.2 hPa WSW 22.5 km/h 30.6 km/h 57% 0 mm
12:54 15.7 °C 7.2 °C 1023.2 hPa SW 17.7 km/h 33.8 km/h 57% 0 mm
12:59 15.8 °C 7.3 °C 1023.2 hPa WSW 17.7 km/h 33.8 km/h 57% 0 mm
13:04 16.1 °C 7.3 °C 1023.2 hPa WSW 16.1 km/h 33.8 km/h 56% 0 mm
13:09 15.8 °C 6.8 °C 1022.9 hPa West 20.9 km/h 35.4 km/h 55% 0 mm
13:14 15.9 °C 7.4 °C 1022.9 hPa WSW 19.3 km/h 35.4 km/h 57% 0 mm
13:19 16.3 °C 7.5 °C 1022.9 hPa WSW 14.5 km/h 30.6 km/h 56% 0 mm
13:24 16.3 °C 7.5 °C 1022.6 hPa SSW 14.5 km/h 33.8 km/h 56% 0 mm
13:29 16.3 °C 7.5 °C 1022.6 hPa SW 12.9 km/h 30.6 km/h 56% 0 mm
13:34 16.4 °C 7.6 °C 1022.6 hPa SW 9.7 km/h 25.7 km/h 56% 0 mm
13:39 16.2 °C 7.4 °C 1022.6 hPa WSW 12.9 km/h 33.8 km/h 56% 0 mm
13:44 16.1 °C 7.3 °C 1022.6 hPa SW 17.7 km/h 38.6 km/h 56% 0 mm
13:49 16.4 °C 7.6 °C 1022.6 hPa SSW 20.9 km/h 29 km/h 56% 0 mm
13:54 16.1 °C 7.3 °C 1022.2 hPa West 12.9 km/h 40.2 km/h 56% 0 mm
13:59 15.9 °C 7.4 °C 1022.2 hPa WSW 19.3 km/h 40.2 km/h 57% 0 mm
14:04 16.3 °C 7.6 °C 1022.2 hPa WSW 16.1 km/h 37 km/h 56% 0 mm
14:09 16.3 °C 7.5 °C 1022.2 hPa WSW 16.1 km/h 37 km/h 56% 0 mm
14:14 16.1 °C 7.8 °C 1021.9 hPa WSW 16.1 km/h 40.2 km/h 58% 0 mm
14:19 16.2 °C 7.4 °C 1021.9 hPa SW 27.4 km/h 35.4 km/h 56% 0 mm
14:24 16.3 °C 8.6 °C 1021.6 hPa WSW 27.4 km/h 35.4 km/h 60% 0 mm
14:29 16.4 °C 8.1 °C 1021.6 hPa SSW 12.9 km/h 35.4 km/h 58% 0 mm
14:34 16.7 °C 8.7 °C 1021.6 hPa WSW 12.9 km/h 22.5 km/h 59% 0 mm
14:39 16.8 °C 8.2 °C 1021.6 hPa SW 20.9 km/h 30.6 km/h 57% 0 mm
14:44 16.4 °C 8.2 °C 1021.6 hPa WSW 20.9 km/h 41.8 km/h 58% 0 mm
14:49 16.1 °C 8.1 °C 1021.6 hPa NNW 8 km/h 30.6 km/h 59% 0 mm
14:54 16 °C 7.7 °C 1021.6 hPa West 30.6 km/h 41.8 km/h 58% 0 mm
14:59 15.8 °C 7.6 °C 1021.6 hPa WSW 17.7 km/h 41.8 km/h 58% 0 mm
15:04 15.9 °C 7.7 °C 1021.6 hPa WSW 17.7 km/h 37 km/h 58% 0 mm
15:09 15.9 °C 7.6 °C 1021.6 hPa SSW 12.9 km/h 33.8 km/h 58% 0 mm
15:14 15.8 °C 8 °C 1021.6 hPa WSW 29 km/h 29 km/h 60% 0 mm
15:19 15.7 °C 7.7 °C 1021.6 hPa West 11.3 km/h 32.2 km/h 59% 0 mm
15:24 15.8 °C 7.8 °C 1021.6 hPa WSW 16.1 km/h 32.2 km/h 59% 0 mm
15:29 15.7 °C 8 °C 1021.6 hPa WSW 17.7 km/h 38.6 km/h 60% 0 mm
15:34 15.8 °C 8 °C 1021.6 hPa WSW 14.5 km/h 35.4 km/h 60% 0 mm
15:39 16.3 °C 8.2 °C 1021.6 hPa WSW 11.3 km/h 27.4 km/h 59% 0 mm
15:44 16.3 °C 8.1 °C 1021.2 hPa SSW 30.6 km/h 33.8 km/h 58% 0 mm
15:49 16.4 °C 8.3 °C 1021.6 hPa WSW 17.7 km/h 32.2 km/h 59% 0 mm
15:54 16.4 °C 8.4 °C 1021.6 hPa WSW 16.1 km/h 33.8 km/h 59% 0 mm
15:59 16.6 °C 8.6 °C 1021.2 hPa SW 22.5 km/h 45.1 km/h 59% 0 mm
16:04 16.3 °C 8.8 °C 1021.2 hPa WSW 17.7 km/h 45.1 km/h 61% 0 mm
16:09 16.6 °C 9.1 °C 1021.2 hPa SW 12.9 km/h 27.4 km/h 61% 0 mm
16:14 16.6 °C 8.3 °C 1021.2 hPa WSW 19.3 km/h 43.5 km/h 58% 0 mm
16:19 16.4 °C 8.2 °C 1021.2 hPa WSW 19.3 km/h 43.5 km/h 58% 0 mm
16:24 16.6 °C 8.3 °C 1021.2 hPa SW 17.7 km/h 43.5 km/h 58% 0 mm
16:29 16.6 °C 8.3 °C 1020.9 hPa WSW 16.1 km/h 35.4 km/h 58% 0 mm
16:34 16.6 °C 8.3 °C 1020.9 hPa West 9.7 km/h 22.5 km/h 58% 0 mm
16:39 16.6 °C 8 °C 1020.5 hPa SSW 11.3 km/h 27.4 km/h 57% 0 mm
16:44 16.4 °C 7.6 °C 1020.5 hPa WSW 22.5 km/h 32.2 km/h 56% 0 mm
16:49 16.5 °C 7.7 °C 1020.5 hPa WSW 16.1 km/h 32.2 km/h 56% 0 mm
16:54 16.4 °C 7.4 °C 1020.5 hPa WSW 16.1 km/h 32.2 km/h 55% 0 mm
16:59 16.3 °C 7.3 °C 1020.5 hPa WSW 17.7 km/h 35.4 km/h 55% 0 mm
17:04 16.3 °C 7.3 °C 1020.5 hPa West 11.3 km/h 40.2 km/h 55% 0 mm
17:09 16.3 °C 7.3 °C 1020.5 hPa South 14.5 km/h 35.4 km/h 55% 0 mm
17:14 16.3 °C 7.2 °C 1020.5 hPa WSW 17.7 km/h 35.4 km/h 55% 0 mm
17:19 16.3 °C 7.3 °C 1020.5 hPa WSW 12.9 km/h 32.2 km/h 55% 0 mm
17:24 16.3 °C 7.5 °C 1020.2 hPa WSW 14.5 km/h 35.4 km/h 56% 0 mm
17:29 16.2 °C 7.1 °C 1020.2 hPa WNW 12.9 km/h 35.4 km/h 55% 0 mm
17:34 16.2 °C 7.4 °C 1020.2 hPa WSW 11.3 km/h 37 km/h 56% 0 mm
17:39 16.1 °C 7.3 °C 1020.2 hPa WSW 14.5 km/h 37 km/h 56% 0 mm
17:44 16.1 °C 7.6 °C 1020.2 hPa SW 17.7 km/h 37 km/h 57% 0 mm
17:49 16 °C 7.7 °C 1019.9 hPa SW 14.5 km/h 30.6 km/h 58% 0 mm
17:54 15.9 °C 7.7 °C 1019.9 hPa SSE 6.4 km/h 24.1 km/h 58% 0 mm
17:59 15.9 °C 7.4 °C 1019.9 hPa SSW 20.9 km/h 37 km/h 57% 0 mm
18:04 15.9 °C 7.7 °C 1019.9 hPa WSW 11.3 km/h 24.1 km/h 58% 0 mm
18:09 15.8 °C 7.5 °C 1019.9 hPa SW 8 km/h 24.1 km/h 58% 0 mm
18:14 15.8 °C 7.8 °C 1019.9 hPa SW 12.9 km/h 24.1 km/h 59% 0 mm
18:19 15.7 °C 8 °C 1019.9 hPa SW 12.9 km/h 27.4 km/h 60% 0 mm
18:24 15.7 °C 7.9 °C 1019.9 hPa SW 12.9 km/h 32.2 km/h 60% 0 mm
18:29 15.6 °C 8.1 °C 1020.2 hPa West 9.7 km/h 17.7 km/h 61% 0 mm
18:34 15.6 °C 8.1 °C 1020.2 hPa SW 16.1 km/h 27.4 km/h 61% 0 mm
18:39 15.6 °C 8.1 °C 1020.2 hPa West 19.3 km/h 30.6 km/h 61% 0 mm
18:44 15.6 °C 8.1 °C 1020.2 hPa WSW 4.8 km/h 24.1 km/h 61% 0 mm
18:49 15.6 °C 8.3 °C 1020.2 hPa SW 12.9 km/h 24.1 km/h 62% 0 mm
18:54 15.6 °C 8.3 °C 1020.5 hPa SSW 11.3 km/h 19.3 km/h 62% 0 mm
18:59 15.6 °C 8.6 °C 1020.5 hPa WSW 12.9 km/h 22.5 km/h 63% 0 mm
19:04 15.6 °C 8.6 °C 1020.5 hPa SW 6.4 km/h 16.1 km/h 63% 0 mm
19:09 15.6 °C 8.6 °C 1020.5 hPa SSW 12.9 km/h 24.1 km/h 63% 0 mm
19:14 15.7 °C 8.7 °C 1020.9 hPa WSW 11.3 km/h 24.1 km/h 63% 0 mm
19:19 15.6 °C 8.6 °C 1020.9 hPa WSW 9.7 km/h 20.9 km/h 63% 0 mm
19:24 15.6 °C 8.6 °C 1020.5 hPa WSW 8 km/h 19.3 km/h 63% 0 mm
19:29 15.7 °C 8.9 °C 1020.9 hPa SW 6.4 km/h 19.3 km/h 64% 0 mm
19:34 15.7 °C 8.9 °C 1020.9 hPa WSW 4.8 km/h 17.7 km/h 64% 0 mm
19:39 15.8 °C 9 °C 1020.9 hPa SSW 8 km/h 19.3 km/h 64% 0 mm
19:44 15.7 °C 8.9 °C 1020.9 hPa West 6.4 km/h 17.7 km/h 64% 0 mm
19:49 15.8 °C 8.8 °C 1020.9 hPa WSW 11.3 km/h 25.7 km/h 63% 0 mm
19:54 15.9 °C 8.6 °C 1020.9 hPa WSW 11.3 km/h 25.7 km/h 62% 0 mm
19:59 15.9 °C 8.8 °C 1020.9 hPa WSW 9.7 km/h 22.5 km/h 63% 0 mm
20:04 15.8 °C 9 °C 1020.9 hPa SSW 8 km/h 24.1 km/h 64% 0 mm
20:09 15.6 °C 9.4 °C 1020.9 hPa SW 6.4 km/h 24.1 km/h 67% 0 mm
20:14 15.2 °C 9.6 °C 1020.9 hPa SW 4.8 km/h 8 km/h 69% 0 mm
20:19 14.9 °C 9.1 °C 1020.9 hPa SW 4.8 km/h 14.5 km/h 68% 0 mm
20:24 14.9 °C 8.4 °C 1020.9 hPa SW 1.6 km/h 17.7 km/h 65% 0 mm
20:29 14.8 °C 8.1 °C 1020.9 hPa South 4.8 km/h 14.5 km/h 64% 0 mm
20:34 14.6 °C 7.8 °C 1020.9 hPa SW 4.8 km/h 9.7 km/h 64% 0 mm
20:39 14.4 °C 7.4 °C 1021.2 hPa SSW 6.4 km/h 11.3 km/h 63% 0 mm
20:44 14.2 °C 7.2 °C 1021.2 hPa South 4.8 km/h 12.9 km/h 63% 0 mm
20:49 14.1 °C 7.2 °C 1021.2 hPa SW 3.2 km/h 12.9 km/h 63% 0 mm
20:54 14.2 °C 7 °C 1021.2 hPa SSW 6.4 km/h 16.1 km/h 62% 0 mm
20:59 14.2 °C 7 °C 1021.2 hPa SSW 6.4 km/h 16.1 km/h 62% 0 mm
21:04 13.9 °C 6.5 °C 1021.2 hPa SSW 4.8 km/h 14.5 km/h 61% 0 mm
21:09 13.8 °C 6.4 °C 1021.6 hPa SSW 4.8 km/h 11.3 km/h 61% 0 mm
21:14 13.7 °C 6.6 °C 1021.6 hPa SSW 4.8 km/h 12.9 km/h 62% 0 mm
21:19 13.5 °C 6.3 °C 1021.6 hPa SSW 4.8 km/h 12.9 km/h 62% 0 mm
21:24 13.4 °C 6.6 °C 1021.6 hPa SSW 3.2 km/h 12.9 km/h 63% 0 mm
21:29 13.6 °C 6.4 °C 1021.6 hPa SW 4.8 km/h 12.9 km/h 62% 0 mm
21:34 13.6 °C 6.4 °C 1021.6 hPa South 8 km/h 12.9 km/h 62% 0 mm
21:39 13.7 °C 6.6 °C 1021.9 hPa SSW 4.8 km/h 16.1 km/h 62% 0 mm
21:44 13.2 °C 6.1 °C 1021.9 hPa SSW 3.2 km/h 6.4 km/h 62% 0 mm
21:49 12.7 °C 5.8 °C 1021.9 hPa Calm   6.4 km/h 63% 0 mm
21:54 12.6 °C 5.9 °C 1021.9 hPa South 3.2 km/h 9.7 km/h 64% 0 mm
21:59 12.6 °C 5.7 °C 1021.9 hPa SSW 3.2 km/h 11.3 km/h 63% 0 mm
22:04 12.6 °C 5.7 °C 1021.9 hPa SSW 3.2 km/h 11.3 km/h 63% 0 mm
22:09 12.6 °C 5.7 °C 1021.9 hPa SSW 3.2 km/h 11.3 km/h 63% 0 mm
22:14 12.6 °C 5.7 °C 1021.9 hPa SSW 4.8 km/h 11.3 km/h 63% 0 mm
22:19 12.6 °C 5.7 °C 1021.9 hPa SSW 4.8 km/h 11.3 km/h 63% 0 mm
22:24 12.5 °C 5.7 °C 1022.2 hPa SSW 8 km/h 12.9 km/h 63% 0 mm
22:29 12.5 °C 5.7 °C 1021.9 hPa SW 4.8 km/h 9.7 km/h 63% 0 mm
22:34 12.4 °C 5.6 °C 1021.9 hPa SSW 4.8 km/h 12.9 km/h 63% 0 mm
22:39 12.4 °C 5.6 °C 1021.9 hPa SW 4.8 km/h 12.9 km/h 63% 0 mm
22:44 12.4 °C 5.6 °C 1021.9 hPa SSW 8 km/h 12.9 km/h 63% 0 mm
22:49 12.4 °C 5.6 °C 1021.9 hPa SW 6.4 km/h 12.9 km/h 63% 0 mm
22:54 12.6 °C 5.7 °C 1022.2 hPa SSW 6.4 km/h 14.5 km/h 63% 0 mm
22:59 12.6 °C 5.7 °C 1022.2 hPa SSW 6.4 km/h 14.5 km/h 63% 0 mm
23:04 12.5 °C 5.7 °C 1022.2 hPa SSW 6.4 km/h 12.9 km/h 63% 0 mm
23:09 12.6 °C 5.7 °C 1022.2 hPa SSW 6.4 km/h 12.9 km/h 63% 0 mm
23:24 12.8 °C 5.7 °C 1022.2 hPa SSW 3.2 km/h 12.9 km/h 62% 0 mm
23:29 12.8 °C 5.9 °C 1022.2 hPa SSW 3.2 km/h 9.7 km/h 63% 0 mm
23:34 12.7 °C 5.8 °C 1022.2 hPa SSW 4.8 km/h 11.3 km/h 63% 0 mm
23:39 12.7 °C 5.8 °C 1022.2 hPa SSW 4.8 km/h 14.5 km/h 63% 0 mm
23:44 12.7 °C 5.8 °C 1022.2 hPa SW 6.4 km/h 17.7 km/h 63% 0 mm
23:49 12.7 °C 5.8 °C 1022.2 hPa SSW 6.4 km/h 17.7 km/h 63% 0 mm
23:54 12.8 °C 5.9 °C 1022.2 hPa SSW 9.7 km/h 16.1 km/h 63% 0 mm
23:59 12.8 °C 5.9 °C 1022.2 hPa SSW 6.4 km/h 16.1 km/h 63% 0 mm
Buffalo, New York, USA
Compliments of Weather Underground - 2.5 mb